sensor_id;sensor_type;location;lat;lon;timestamp;pressure;altitude;pressure_sealevel;temperature;humidity
5905;BME280;2978;42.012;24.880;2023-03-23T00:01:53;98742.06;;;12.10;90.56
5905;BME280;2978;42.012;24.880;2023-03-23T00:04:18;98748.91;;;12.12;91.11
5905;BME280;2978;42.012;24.880;2023-03-23T00:06:44;98732.16;;;12.04;91.10
5905;BME280;2978;42.012;24.880;2023-03-23T00:09:12;98743.44;;;12.07;91.52
5905;BME280;2978;42.012;24.880;2023-03-23T00:11:38;98738.78;;;12.03;91.41
5905;BME280;2978;42.012;24.880;2023-03-23T00:14:04;98739.41;;;11.90;92.85
5905;BME280;2978;42.012;24.880;2023-03-23T00:16:32;98734.44;;;11.92;92.38
5905;BME280;2978;42.012;24.880;2023-03-23T00:19:03;98731.91;;;12.00;92.12
5905;BME280;2978;42.012;24.880;2023-03-23T00:21:34;98738.50;;;12.04;92.39
5905;BME280;2978;42.012;24.880;2023-03-23T00:24:03;98729.69;;;12.02;92.10
5905;BME280;2978;42.012;24.880;2023-03-23T00:26:29;98733.78;;;12.10;92.32
5905;BME280;2978;42.012;24.880;2023-03-23T00:28:55;98734.88;;;12.09;92.33
5905;BME280;2978;42.012;24.880;2023-03-23T00:31:21;98737.09;;;12.07;92.45
5905;BME280;2978;42.012;24.880;2023-03-23T00:33:46;98727.78;;;11.98;93.12
5905;BME280;2978;42.012;24.880;2023-03-23T00:36:13;98732.16;;;12.04;93.53
5905;BME280;2978;42.012;24.880;2023-03-23T00:38:39;98729.19;;;11.95;93.37
5905;BME280;2978;42.012;24.880;2023-03-23T00:41:05;98729.44;;;11.99;93.43
5905;BME280;2978;42.012;24.880;2023-03-23T00:43:32;98727.78;;;11.98;93.31
5905;BME280;2978;42.012;24.880;2023-03-23T00:46:02;98722.00;;;11.94;93.45
5905;BME280;2978;42.012;24.880;2023-03-23T00:48:33;98724.53;;;11.86;93.37
5905;BME280;2978;42.012;24.880;2023-03-23T00:51:01;98724.53;;;11.86;93.17
5905;BME280;2978;42.012;24.880;2023-03-23T00:53:26;98724.53;;;11.86;93.25
5905;BME280;2978;42.012;24.880;2023-03-23T00:55:51;98722.06;;;11.84;93.73
5905;BME280;2978;42.012;24.880;2023-03-23T00:58:17;98721.25;;;11.84;94.27
5905;BME280;2978;42.012;24.880;2023-03-23T01:00:43;98713.84;;;11.79;94.66
5905;BME280;2978;42.012;24.880;2023-03-23T01:03:09;98696.00;;;11.67;95.32
5905;BME280;2978;42.012;24.880;2023-03-23T01:05:44;98706.75;;;11.73;95.51
5905;BME280;2978;42.012;24.880;2023-03-23T01:08:12;98705.66;;;11.69;95.80
5905;BME280;2978;42.012;24.880;2023-03-23T01:10:37;98708.66;;;11.73;95.70
5905;BME280;2978;42.012;24.880;2023-03-23T01:13:04;98710.56;;;11.77;95.38
5905;BME280;2978;42.012;24.880;2023-03-23T01:15:30;98717.97;;;11.82;94.77
5905;BME280;2978;42.012;24.880;2023-03-23T01:17:56;98714.97;;;11.78;94.36
5905;BME280;2978;42.012;24.880;2023-03-23T01:20:22;98708.09;;;11.76;94.80
5905;BME280;2978;42.012;24.880;2023-03-23T01:22:48;98715.81;;;11.74;94.70
5905;BME280;2978;42.012;24.880;2023-03-23T01:25:14;98713.59;;;11.76;94.03
5905;BME280;2978;42.012;24.880;2023-03-23T01:27:40;98711.88;;;11.85;93.81
5905;BME280;2978;42.012;24.880;2023-03-23T01:30:07;98713.78;;;11.89;93.34
5905;BME280;2978;42.012;24.880;2023-03-23T01:32:33;98719.03;;;11.86;93.37
5905;BME280;2978;42.012;24.880;2023-03-23T01:34:59;98723.41;;;11.92;93.13
5905;BME280;2978;42.012;24.880;2023-03-23T01:37:25;98719.50;;;11.98;92.99
5905;BME280;2978;42.012;24.880;2023-03-23T01:39:55;98726.94;;;12.02;92.93
5905;BME280;2978;42.012;24.880;2023-03-23T01:42:23;98736.03;;;12.03;92.69
5905;BME280;2978;42.012;24.880;2023-03-23T01:47:15;98728.97;;;11.87;93.27
5905;BME280;2978;42.012;24.880;2023-03-23T01:49:44;98731.97;;;11.90;93.72
5905;BME280;2978;42.012;24.880;2023-03-23T01:52:15;98727.00;;;11.87;93.93
5905;BME280;2978;42.012;24.880;2023-03-23T01:54:43;98728.44;;;11.80;93.93
5905;BME280;2978;42.012;24.880;2023-03-23T01:57:19;98731.22;;;11.75;93.93
5905;BME280;2978;42.012;24.880;2023-03-23T01:59:49;98729.03;;;11.72;94.78
5905;BME280;2978;42.012;24.880;2023-03-23T02:02:17;98730.16;;;11.71;94.85
5905;BME280;2978;42.012;24.880;2023-03-23T02:04:43;98728.50;;;11.65;95.12
5905;BME280;2978;42.012;24.880;2023-03-23T02:07:12;98727.16;;;11.57;95.71
5905;BME280;2978;42.012;24.880;2023-03-23T02:09:37;98726.06;;;11.53;96.16
5905;BME280;2978;42.012;24.880;2023-03-23T02:12:03;98727.41;;;11.61;96.69
5905;BME280;2978;42.012;24.880;2023-03-23T02:14:29;98727.97;;;11.63;96.70
5905;BME280;2978;42.012;24.880;2023-03-23T02:28:02;98715.38;;;11.42;97.30
5905;BME280;2978;42.012;24.880;2023-03-23T02:30:43;98730.81;;;11.38;97.71
5905;BME280;2978;42.012;24.880;2023-03-23T02:39:09;98715.44;;;11.26;97.83
5905;BME280;2978;42.012;24.880;2023-03-23T02:41:43;98736.59;;;11.36;98.44
5905;BME280;2978;42.012;24.880;2023-03-23T02:44:11;98737.16;;;11.38;98.16
5905;BME280;2978;42.012;24.880;2023-03-23T02:46:39;98740.72;;;11.44;97.94
5905;BME280;2978;42.012;24.880;2023-03-23T02:49:06;98729.69;;;11.49;97.75
5905;BME280;2978;42.012;24.880;2023-03-23T02:51:34;98740.69;;;11.49;97.32
5905;BME280;2978;42.012;24.880;2023-03-23T02:54:02;98739.56;;;11.50;96.76
5905;BME280;2978;42.012;24.880;2023-03-23T02:56:29;98736.50;;;11.56;96.59
5905;BME280;2978;42.012;24.880;2023-03-23T02:58:58;98738.47;;;11.56;96.40
5905;BME280;2978;42.012;24.880;2023-03-23T03:03:56;98734.59;;;11.52;97.12
5905;BME280;2978;42.012;24.880;2023-03-23T03:06:36;98747.53;;;11.51;96.93
5905;BME280;2978;42.012;24.880;2023-03-23T03:09:14;98742.88;;;11.52;96.96
5905;BME280;2978;42.012;24.880;2023-03-23T03:11:47;98750.56;;;11.50;97.42
5905;BME280;2978;42.012;24.880;2023-03-23T03:14:23;98740.16;;;11.42;97.05
5905;BME280;2978;42.012;24.880;2023-03-23T03:19:47;98756.16;;;11.29;97.72
5905;BME280;2978;42.012;24.880;2023-03-23T03:22:14;98763.31;;;11.30;97.37
5905;BME280;2978;42.012;24.880;2023-03-23T03:24:41;98758.34;;;11.32;97.63
5905;BME280;2978;42.012;24.880;2023-03-23T03:27:13;98753.94;;;11.31;98.00
5905;BME280;2978;42.012;24.880;2023-03-23T03:29:45;98761.91;;;11.43;97.61
5905;BME280;2978;42.012;24.880;2023-03-23T03:32:16;98758.84;;;11.50;96.85
5905;BME280;2978;42.012;24.880;2023-03-23T03:34:43;98754.97;;;11.51;96.46
5905;BME280;2978;42.012;24.880;2023-03-23T03:37:10;98767.88;;;11.60;96.05
5905;BME280;2978;42.012;24.880;2023-03-23T03:39:37;98769.81;;;11.60;95.92
5905;BME280;2978;42.012;24.880;2023-03-23T03:42:06;98769.00;;;11.54;95.63
5905;BME280;2978;42.012;24.880;2023-03-23T03:44:33;98773.16;;;11.52;95.75
5905;BME280;2978;42.012;24.880;2023-03-23T03:46:58;98775.88;;;11.57;96.11
5905;BME280;2978;42.012;24.880;2023-03-23T03:49:24;98782.78;;;11.64;95.80
5905;BME280;2978;42.012;24.880;2023-03-23T03:51:50;98771.75;;;11.64;95.50
5905;BME280;2978;42.012;24.880;2023-03-23T03:54:16;98775.31;;;11.65;95.14
5905;BME280;2978;42.012;24.880;2023-03-23T03:56:41;98784.97;;;11.62;95.55
5905;BME280;2978;42.012;24.880;2023-03-23T03:59:08;98789.09;;;11.65;95.29
5905;BME280;2978;42.012;24.880;2023-03-23T04:01:36;98791.28;;;11.63;95.07
5905;BME280;2978;42.012;24.880;2023-03-23T04:04:02;98784.97;;;11.62;95.24
5905;BME280;2978;42.012;24.880;2023-03-23T04:06:29;98795.13;;;11.62;95.09
5905;BME280;2978;42.012;24.880;2023-03-23T04:08:58;98792.38;;;11.67;95.59
5905;BME280;2978;42.012;24.880;2023-03-23T04:11:24;98786.09;;;11.66;95.13
5905;BME280;2978;42.012;24.880;2023-03-23T04:13:50;98790.19;;;11.59;95.70
5905;BME280;2978;42.012;24.880;2023-03-23T04:16:16;98791.56;;;11.56;95.39
5905;BME280;2978;42.012;24.880;2023-03-23T04:18:42;98790.25;;;11.49;95.25
5905;BME280;2978;42.012;24.880;2023-03-23T04:21:08;98790.25;;;11.49;96.11
5905;BME280;2978;42.012;24.880;2023-03-23T04:23:34;98788.31;;;11.44;96.37
5905;BME280;2978;42.012;24.880;2023-03-23T04:26:01;98780.34;;;11.43;96.62
5905;BME280;2978;42.012;24.880;2023-03-23T04:28:28;98786.41;;;11.40;96.98
5905;BME280;2978;42.012;24.880;2023-03-23T04:30:55;98785.03;;;11.32;96.21
5905;BME280;2978;42.012;24.880;2023-03-23T04:33:22;98792.22;;;11.33;96.64
5905;BME280;2978;42.012;24.880;2023-03-23T04:35:51;98785.88;;;11.27;96.41
5905;BME280;2978;42.012;24.880;2023-03-23T04:38:17;98792.75;;;11.25;96.90
5905;BME280;2978;42.012;24.880;2023-03-23T04:40:46;98788.66;;;11.27;96.86
5905;BME280;2978;42.012;24.880;2023-03-23T04:43:12;98783.69;;;11.24;96.34
5905;BME280;2978;42.012;24.880;2023-03-23T04:45:38;98784.50;;;11.25;96.91
5905;BME280;2978;42.012;24.880;2023-03-23T04:48:07;98790.84;;;11.30;96.80
5905;BME280;2978;42.012;24.880;2023-03-23T04:50:33;98794.41;;;11.31;96.26
5905;BME280;2978;42.012;24.880;2023-03-23T04:53:00;98786.97;;;11.31;96.02
5905;BME280;2978;42.012;24.880;2023-03-23T04:55:31;98796.03;;;11.37;95.89
5905;BME280;2978;42.012;24.880;2023-03-23T04:58:01;98785.84;;;11.43;95.71
5905;BME280;2978;42.012;24.880;2023-03-23T05:00:28;98784.47;;;11.45;95.35
5905;BME280;2978;42.012;24.880;2023-03-23T05:02:53;98787.50;;;11.44;94.72
5905;BME280;2978;42.012;24.880;2023-03-23T05:05:21;98776.22;;;11.40;95.64
5905;BME280;2978;42.012;24.880;2023-03-23T05:07:47;98783.94;;;11.38;95.29
5905;BME280;2978;42.012;24.880;2023-03-23T05:10:14;98797.69;;;11.38;95.28
5905;BME280;2978;42.012;24.880;2023-03-23T05:12:40;98797.97;;;11.37;95.40
5905;BME280;2978;42.012;24.880;2023-03-23T05:15:07;98797.72;;;11.33;95.76
5905;BME280;2978;42.012;24.880;2023-03-23T05:17:33;98795.22;;;11.42;95.70
5905;BME280;2978;42.012;24.880;2023-03-23T05:19:59;98791.94;;;11.34;95.40
5905;BME280;2978;42.012;24.880;2023-03-23T05:22:28;98811.44;;;11.43;95.04
5905;BME280;2978;42.012;24.880;2023-03-23T05:24:53;98812.53;;;11.42;95.34
5905;BME280;2978;42.012;24.880;2023-03-23T05:27:19;98808.97;;;11.42;94.96
5905;BME280;2978;42.012;24.880;2023-03-23T05:29:45;98808.38;;;11.50;94.59
5905;BME280;2978;42.012;24.880;2023-03-23T05:32:14;98815.81;;;11.64;94.36
5905;BME280;2978;42.012;24.880;2023-03-23T05:34:40;98806.91;;;11.87;93.19
5905;BME280;2978;42.012;24.880;2023-03-23T05:37:07;98813.38;;;12.16;91.47
5905;BME280;2978;42.012;24.880;2023-03-23T05:39:35;98817.91;;;12.46;90.07
5905;BME280;2978;42.012;24.880;2023-03-23T05:42:01;98814.13;;;12.71;88.54
5905;BME280;2978;42.012;24.880;2023-03-23T05:44:26;98827.22;;;12.89;87.84
5905;BME280;2978;42.012;24.880;2023-03-23T05:46:52;98827.13;;;13.04;85.93
5905;BME280;2978;42.012;24.880;2023-03-23T05:49:18;98830.13;;;13.36;84.98
5905;BME280;2978;42.012;24.880;2023-03-23T05:51:44;98838.31;;;13.46;84.09
5905;BME280;2978;42.012;24.880;2023-03-23T05:54:11;98846.28;;;13.52;83.06
5905;BME280;2978;42.012;24.880;2023-03-23T05:56:37;98847.28;;;13.33;83.30
5905;BME280;2978;42.012;24.880;2023-03-23T05:59:03;98847.69;;;13.21;83.78
5905;BME280;2978;42.012;24.880;2023-03-23T06:01:29;98849.22;;;13.32;83.92
5905;BME280;2978;42.012;24.880;2023-03-23T06:03:55;98867.69;;;13.37;83.86
5905;BME280;2978;42.012;24.880;2023-03-23T06:06:27;98856.47;;;13.23;84.53
5905;BME280;2978;42.012;24.880;2023-03-23T06:08:55;98867.75;;;13.27;84.44
5905;BME280;2978;42.012;24.880;2023-03-23T06:11:21;98869.78;;;13.21;84.40
5905;BME280;2978;42.012;24.880;2023-03-23T06:13:47;98871.75;;;13.16;84.83
5905;BME280;2978;42.012;24.880;2023-03-23T06:16:13;98868.50;;;13.09;85.17
5905;BME280;2978;42.012;24.880;2023-03-23T06:18:38;98870.97;;;13.10;85.05
5905;BME280;2978;42.012;24.880;2023-03-23T06:21:06;98871.03;;;13.00;86.10
5905;BME280;2978;42.012;24.880;2023-03-23T06:23:32;98871.31;;;12.94;86.75
5905;BME280;2978;42.012;24.880;2023-03-23T06:26:00;98862.25;;;12.93;86.96
5905;BME280;2978;42.012;24.880;2023-03-23T06:28:27;98869.28;;;13.09;86.93
5905;BME280;2978;42.012;24.880;2023-03-23T06:30:52;98876.97;;;13.17;85.82
5905;BME280;2978;42.012;24.880;2023-03-23T06:33:19;98870.31;;;13.18;85.94
5905;BME280;2978;42.012;24.880;2023-03-23T06:35:44;98864.22;;;13.26;85.13
5905;BME280;2978;42.012;24.880;2023-03-23T06:38:10;98870.16;;;13.38;84.66
5905;BME280;2978;42.012;24.880;2023-03-23T06:40:36;98876.72;;;13.42;84.93
5905;BME280;2978;42.012;24.880;2023-03-23T06:43:02;98873.47;;;13.40;84.24
5905;BME280;2978;42.012;24.880;2023-03-23T06:45:29;98883.28;;;13.51;84.10
5905;BME280;2978;42.012;24.880;2023-03-23T06:47:54;98882.59;;;13.65;83.83
5905;BME280;2978;42.012;24.880;2023-03-23T06:50:20;98885.56;;;13.73;82.89
5905;BME280;2978;42.012;24.880;2023-03-23T06:52:47;98892.25;;;13.67;82.78
5905;BME280;2978;42.012;24.880;2023-03-23T06:55:14;98890.78;;;13.75;82.21
5905;BME280;2978;42.012;24.880;2023-03-23T06:57:40;98879.38;;;13.81;82.01
5905;BME280;2978;42.012;24.880;2023-03-23T07:00:06;98884.34;;;13.84;81.67
5905;BME280;2978;42.012;24.880;2023-03-23T07:02:42;98895.81;;;13.96;81.68
5905;BME280;2978;42.012;24.880;2023-03-23T07:05:09;98890.56;;;13.95;81.47
5905;BME280;2978;42.012;24.880;2023-03-23T07:07:39;98878.94;;;13.98;81.26
5905;BME280;2978;42.012;24.880;2023-03-23T07:10:07;98890.09;;;14.11;80.81
5905;BME280;2978;42.012;24.880;2023-03-23T07:12:34;98888.53;;;14.29;80.20
5905;BME280;2978;42.012;24.880;2023-03-23T07:15:01;98883.38;;;14.41;79.76
5905;BME280;2978;42.012;24.880;2023-03-23T07:17:27;98896.44;;;14.59;80.22
5905;BME280;2978;42.012;24.880;2023-03-23T07:19:53;98895.06;;;14.75;78.29
5905;BME280;2978;42.012;24.880;2023-03-23T07:22:19;98896.66;;;14.81;78.24
5905;BME280;2978;42.012;24.880;2023-03-23T07:24:44;98895.22;;;15.02;77.21
5905;BME280;2978;42.012;24.880;2023-03-23T07:27:10;98894.69;;;15.19;77.29
5905;BME280;2978;42.012;24.880;2023-03-23T07:29:36;98902.13;;;15.37;76.62
5905;BME280;2978;42.012;24.880;2023-03-23T07:32:04;98899.53;;;15.45;75.41
5905;BME280;2978;42.012;24.880;2023-03-23T07:34:30;98899.75;;;15.49;74.84
5905;BME280;2978;42.012;24.880;2023-03-23T07:36:57;98903.22;;;15.41;74.99
5905;BME280;2978;42.012;24.880;2023-03-23T07:39:22;98903.44;;;15.44;75.27
5905;BME280;2978;42.012;24.880;2023-03-23T07:41:49;98910.22;;;15.52;75.32
5905;BME280;2978;42.012;24.880;2023-03-23T07:44:15;98908.75;;;15.41;74.32
5905;BME280;2978;42.012;24.880;2023-03-23T07:46:40;98910.63;;;15.45;74.26
5905;BME280;2978;42.012;24.880;2023-03-23T07:49:07;98921.44;;;15.60;73.33
5905;BME280;2978;42.012;24.880;2023-03-23T07:51:33;98912.75;;;15.67;73.50
5905;BME280;2978;42.012;24.880;2023-03-23T07:53:59;98920.47;;;15.84;72.53
5905;BME280;2978;42.012;24.880;2023-03-23T07:56:27;98914.72;;;15.94;72.33
5905;BME280;2978;42.012;24.880;2023-03-23T07:58:52;98915.88;;;15.93;72.60
5905;BME280;2978;42.012;24.880;2023-03-23T08:01:18;98921.22;;;16.03;72.60
5905;BME280;2978;42.012;24.880;2023-03-23T08:03:43;98922.44;;;15.97;72.64
5905;BME280;2978;42.012;24.880;2023-03-23T08:06:09;98919.78;;;16.05;72.54
5905;BME280;2978;42.012;24.880;2023-03-23T08:08:35;98917.81;;;16.06;72.38
5905;BME280;2978;42.012;24.880;2023-03-23T08:11:02;98921.00;;;15.99;71.99
5905;BME280;2978;42.012;24.880;2023-03-23T08:13:28;98923.66;;;15.91;72.52
5905;BME280;2978;42.012;24.880;2023-03-23T08:15:54;98927.53;;;15.76;72.85
5905;BME280;2978;42.012;24.880;2023-03-23T08:18:20;98927.97;;;15.51;73.70
5905;BME280;2978;42.012;24.880;2023-03-23T08:20:45;98922.06;;;15.39;74.34
5905;BME280;2978;42.012;24.880;2023-03-23T08:23:11;98921.41;;;15.28;74.65
5905;BME280;2978;42.012;24.880;2023-03-23T08:25:37;98919.16;;;15.12;75.43
5905;BME280;2978;42.012;24.880;2023-03-23T08:28:03;98919.53;;;15.05;75.45
5905;BME280;2978;42.012;24.880;2023-03-23T08:30:30;98924.09;;;14.96;75.69
5905;BME280;2978;42.012;24.880;2023-03-23T08:32:57;98916.72;;;14.92;76.28
5905;BME280;2978;42.012;24.880;2023-03-23T08:35:23;98909.59;;;15.04;75.88
5905;BME280;2978;42.012;24.880;2023-03-23T08:37:49;98922.47;;;15.14;75.55
5905;BME280;2978;42.012;24.880;2023-03-23T08:40:21;98915.41;;;15.21;75.66
5905;BME280;2978;42.012;24.880;2023-03-23T08:42:48;98910.63;;;15.08;76.41
5905;BME280;2978;42.012;24.880;2023-03-23T08:45:16;98924.41;;;14.76;77.09
5905;BME280;2978;42.012;24.880;2023-03-23T08:47:43;98913.50;;;14.85;77.15
5905;BME280;2978;42.012;24.880;2023-03-23T08:50:12;98914.41;;;14.99;75.80
5905;BME280;2978;42.012;24.880;2023-03-23T08:52:38;98910.34;;;15.10;74.45
5905;BME280;2978;42.012;24.880;2023-03-23T08:55:04;98906.59;;;15.19;74.40
5905;BME280;2978;42.012;24.880;2023-03-23T08:57:30;98905.41;;;15.25;74.84
5905;BME280;2978;42.012;24.880;2023-03-23T08:59:56;98914.59;;;15.21;73.54
5905;BME280;2978;42.012;24.880;2023-03-23T09:02:26;98914.16;;;15.32;72.77
5905;BME280;2978;42.012;24.880;2023-03-23T09:04:53;98913.47;;;15.40;71.93
5905;BME280;2978;42.012;24.880;2023-03-23T09:07:19;98914.53;;;15.44;71.29
5905;BME280;2978;42.012;24.880;2023-03-23T09:09:44;98908.72;;;15.59;70.77
5905;BME280;2978;42.012;24.880;2023-03-23T09:12:10;98915.00;;;15.78;70.71
5905;BME280;2978;42.012;24.880;2023-03-23T09:14:36;98919.13;;;15.81;69.95
5905;BME280;2978;42.012;24.880;2023-03-23T09:17:03;98912.97;;;15.84;70.38
5905;BME280;2978;42.012;24.880;2023-03-23T09:19:29;98924.91;;;15.85;70.21
5905;BME280;2978;42.012;24.880;2023-03-23T09:21:55;98933.16;;;15.71;69.98
5905;BME280;2978;42.012;24.880;2023-03-23T09:24:20;98929.59;;;15.70;69.78
5905;BME280;2978;42.012;24.880;2023-03-23T09:26:46;98924.75;;;15.76;69.93
5905;BME280;2978;42.012;24.880;2023-03-23T09:29:12;98938.25;;;15.83;69.39
5905;BME280;2978;42.012;24.880;2023-03-23T09:31:38;98919.78;;;15.92;68.78
5905;BME280;2978;42.012;24.880;2023-03-23T09:34:05;98919.47;;;16.07;67.92
5905;BME280;2978;42.012;24.880;2023-03-23T09:36:31;98921.03;;;16.40;66.42
5905;BME280;2978;42.012;24.880;2023-03-23T09:38:57;98914.28;;;16.59;65.98
5905;BME280;2978;42.012;24.880;2023-03-23T09:47:37;98906.81;;;16.68;65.88
5905;BME280;2978;42.012;24.880;2023-03-23T09:52:46;98905.59;;;16.74;66.27
5905;BME280;2978;42.012;24.880;2023-03-23T09:55:16;98905.41;;;16.71;65.08
5905;BME280;2978;42.012;24.880;2023-03-23T10:00:40;98905.81;;;17.14;63.30
5905;BME280;2978;42.012;24.880;2023-03-23T10:03:21;98900.94;;;17.41;63.25
5905;BME280;2978;42.012;24.880;2023-03-23T10:05:50;98900.31;;;17.66;62.02
5905;BME280;2978;42.012;24.880;2023-03-23T10:08:18;98903.47;;;17.29;60.85
5905;BME280;2978;42.012;24.880;2023-03-23T10:16:05;98874.88;;;16.44;65.00
5905;BME280;2978;42.012;24.880;2023-03-23T10:21:00;98888.16;;;16.33;66.12
5905;BME280;2978;42.012;24.880;2023-03-23T10:26:04;98884.03;;;16.17;66.53
5905;BME280;2978;42.012;24.880;2023-03-23T10:28:44;98881.16;;;16.36;66.79
5905;BME280;2978;42.012;24.880;2023-03-23T10:31:17;98884.03;;;16.58;65.69
5905;BME280;2978;42.012;24.880;2023-03-23T10:33:56;98880.09;;;16.72;63.75
5905;BME280;2978;42.012;24.880;2023-03-23T10:36:38;98878.28;;;16.90;62.73
5905;BME280;2978;42.012;24.880;2023-03-23T10:39:21;98873.28;;;17.14;62.30
5905;BME280;2978;42.012;24.880;2023-03-23T10:41:48;98876.84;;;17.50;60.87
5905;BME280;2978;42.012;24.880;2023-03-23T10:44:19;98880.63;;;17.54;60.77
5905;BME280;2978;42.012;24.880;2023-03-23T10:46:58;98872.31;;;17.63;60.05
5905;BME280;2978;42.012;24.880;2023-03-23T10:49:28;98867.06;;;17.83;58.89
5905;BME280;2978;42.012;24.880;2023-03-23T10:52:06;98870.00;;;18.26;57.35
5905;BME280;2978;42.012;24.880;2023-03-23T10:54:46;98875.41;;;18.79;55.88
5905;BME280;2978;42.012;24.880;2023-03-23T10:57:30;98865.94;;;19.23;51.49
5905;BME280;2978;42.012;24.880;2023-03-23T11:00:00;98859.03;;;19.29;48.86
5905;BME280;2978;42.012;24.880;2023-03-23T11:02:30;98860.16;;;19.53;47.85
5905;BME280;2978;42.012;24.880;2023-03-23T11:05:02;98856.00;;;19.85;47.17
5905;BME280;2978;42.012;24.880;2023-03-23T11:07:32;98844.25;;;20.17;45.93
5905;BME280;2978;42.012;24.880;2023-03-23T11:10:21;98848.78;;;20.30;45.61
5905;BME280;2978;42.012;24.880;2023-03-23T11:12:47;98849.66;;;20.22;46.28
5905;BME280;2978;42.012;24.880;2023-03-23T11:15:33;98847.75;;;20.35;45.70
5905;BME280;2978;42.012;24.880;2023-03-23T11:18:04;98839.75;;;20.25;45.09
5905;BME280;2978;42.012;24.880;2023-03-23T11:20:39;98835.53;;;20.10;44.91
5905;BME280;2978;42.012;24.880;2023-03-23T11:29:09;98834.09;;;19.49;46.78
5905;BME280;2978;42.012;24.880;2023-03-23T11:31:39;98825.56;;;19.37;46.25
5905;BME280;2978;42.012;24.880;2023-03-23T11:34:14;98826.91;;;19.23;47.62
5905;BME280;2978;42.012;24.880;2023-03-23T11:36:43;98823.47;;;19.00;48.50
5905;BME280;2978;42.012;24.880;2023-03-23T11:39:30;98824.94;;;18.97;48.16
5905;BME280;2978;42.012;24.880;2023-03-23T11:42:12;98822.97;;;19.15;47.50
5905;BME280;2978;42.012;24.880;2023-03-23T11:44:43;98821.63;;;19.13;47.98
5905;BME280;2978;42.012;24.880;2023-03-23T11:47:40;98812.97;;;18.97;48.59
5905;BME280;2978;42.012;24.880;2023-03-23T11:50:23;98814.63;;;18.98;49.02
5905;BME280;2978;42.012;24.880;2023-03-23T11:53:00;98816.06;;;19.04;46.99
5905;BME280;2978;42.012;24.880;2023-03-23T11:55:34;98806.91;;;18.86;47.75
5905;BME280;2978;42.012;24.880;2023-03-23T11:58:10;98817.72;;;18.71;47.90
5905;BME280;2978;42.012;24.880;2023-03-23T12:00:36;98814.88;;;18.37;49.02
5905;BME280;2978;42.012;24.880;2023-03-23T12:03:26;98824.59;;;18.56;48.25
5905;BME280;2978;42.012;24.880;2023-03-23T12:06:12;98810.50;;;18.87;47.73
5905;BME280;2978;42.012;24.880;2023-03-23T12:14:21;98813.13;;;18.58;48.05
5905;BME280;2978;42.012;24.880;2023-03-23T12:22:55;98814.59;;;18.64;49.70
5905;BME280;2978;42.012;24.880;2023-03-23T12:31:29;98810.69;;;18.56;50.24
5905;BME280;2978;42.012;24.880;2023-03-23T12:34:09;98814.25;;;18.57;50.49
5905;BME280;2978;42.012;24.880;2023-03-23T12:45:11;98816.25;;;18.65;50.77
5905;BME280;2978;42.012;24.880;2023-03-23T12:48:07;98804.13;;;18.61;51.41
5905;BME280;2978;42.012;24.880;2023-03-23T12:50:38;98807.41;;;18.80;51.20
5905;BME280;2978;42.012;24.880;2023-03-23T12:53:20;98805.09;;;18.65;51.70
5905;BME280;2978;42.012;24.880;2023-03-23T12:58:42;98798.38;;;18.74;51.26
5905;BME280;2978;42.012;24.880;2023-03-23T13:01:22;98810.19;;;18.63;51.50
5905;BME280;2978;42.012;24.880;2023-03-23T13:06:34;98800.44;;;18.35;52.32
5905;BME280;2978;42.012;24.880;2023-03-23T13:09:21;98808.44;;;18.19;52.73
5905;BME280;2978;42.012;24.880;2023-03-23T13:12:09;98797.66;;;17.78;53.05
5905;BME280;2978;42.012;24.880;2023-03-23T13:14:57;98803.84;;;17.75;53.56
5905;BME280;2978;42.012;24.880;2023-03-23T13:25:47;98804.44;;;17.55;52.95
5905;BME280;2978;42.012;24.880;2023-03-23T13:28:26;98806.88;;;17.57;53.20
5905;BME280;2978;42.012;24.880;2023-03-23T13:31:11;98807.44;;;17.67;52.75
5905;BME280;2978;42.012;24.880;2023-03-23T13:33:37;98812.16;;;17.67;52.40
5905;BME280;2978;42.012;24.880;2023-03-23T13:36:10;98810.97;;;17.59;52.61
5905;BME280;2978;42.012;24.880;2023-03-23T13:38:36;98805.59;;;17.63;52.91
5905;BME280;2978;42.012;24.880;2023-03-23T13:41:11;98805.22;;;17.86;52.15
5905;BME280;2978;42.012;24.880;2023-03-23T13:43:38;98806.09;;;18.04;52.21
5905;BME280;2978;42.012;24.880;2023-03-23T13:46:22;98808.56;;;18.06;51.09
5905;BME280;2978;42.012;24.880;2023-03-23T13:49:02;98798.44;;;18.10;51.55
5905;BME280;2978;42.012;24.880;2023-03-23T13:54:39;98803.66;;;18.03;51.56
5905;BME280;2978;42.012;24.880;2023-03-23T13:59:56;98810.44;;;17.79;51.52
5905;BME280;2978;42.012;24.880;2023-03-23T14:02:31;98801.13;;;17.92;51.82
5905;BME280;2978;42.012;24.880;2023-03-23T14:05:23;98802.84;;;18.11;51.27
5905;BME280;2978;42.012;24.880;2023-03-23T14:16:27;98806.41;;;18.59;49.79
5905;BME280;2978;42.012;24.880;2023-03-23T14:19:00;98805.56;;;18.50;49.24
5905;BME280;2978;42.012;24.880;2023-03-23T14:21:38;98804.22;;;18.39;48.83
5905;BME280;2978;42.012;24.880;2023-03-23T14:24:39;98803.38;;;18.30;49.04
5905;BME280;2978;42.012;24.880;2023-03-23T14:29:30;98820.66;;;18.49;48.52
5905;BME280;2978;42.012;24.880;2023-03-23T14:31:57;98818.69;;;18.58;48.57
5905;BME280;2978;42.012;24.880;2023-03-23T14:34:28;98806.22;;;18.55;48.84
5905;BME280;2978;42.012;24.880;2023-03-23T14:36:55;98813.63;;;18.60;48.98
5905;BME280;2978;42.012;24.880;2023-03-23T14:41:54;98811.59;;;18.35;49.38
5905;BME280;2978;42.012;24.880;2023-03-23T14:44:33;98811.88;;;18.25;49.75
5905;BME280;2978;42.012;24.880;2023-03-23T14:47:07;98807.72;;;18.05;50.81
5905;BME280;2978;42.012;24.880;2023-03-23T14:49:38;98801.09;;;17.84;50.94
5905;BME280;2978;42.012;24.880;2023-03-23T14:54:35;98808.16;;;17.51;53.16
5905;BME280;2978;42.012;24.880;2023-03-23T14:59:49;98810.94;;;17.29;53.88
5905;BME280;2978;42.012;24.880;2023-03-23T15:02:25;98801.28;;;17.26;53.74
5905;BME280;2978;42.012;24.880;2023-03-23T15:07:42;98793.56;;;17.23;54.32
5905;BME280;2978;42.012;24.880;2023-03-23T15:10:09;98800.00;;;17.32;54.25
5905;BME280;2978;42.012;24.880;2023-03-23T15:12:39;98795.16;;;17.16;55.12
5905;BME280;2978;42.012;24.880;2023-03-23T15:15:07;98788.41;;;17.08;54.77
5905;BME280;2978;42.012;24.880;2023-03-23T15:17:45;98790.56;;;17.11;54.67
5905;BME280;2978;42.012;24.880;2023-03-23T15:20:24;98790.56;;;16.89;56.45
5905;BME280;2978;42.012;24.880;2023-03-23T15:22:50;98784.69;;;16.91;56.82